Terminal Aerodrome Forecast
Issued by NWS Blacksburg, VA

Home | Current Version | Previous Version | Text Only | Print | Product List | Glossary On
Versions: 1 2 3 4 5 6 7 8 9 10 11 12 13 14 15 16 17 18 19 20 21 22 23 24 25 26 27 28 29 30 31 32 33 34 35 36 37 38 39 40 41 42
000
FTUS41 KRNK 221304 AAA
TAFBLF
TAF AMD
KBLF 221304Z 2213/2312 31007KT P6SM OVC005
      TEMPO 2213/2215 4SM BR OVC009
     FM221500 32010G16KT P6SM OVC012
     FM221800 32012G18KT P6SM -SHRA BKN015
     FM230300 30006KT P6SM OVC008=

USA.gov is the U.S. government's official web portal to all federal, state and local government web resources and services.